Lake Geneva, Wisconsin
Current Conditions -  °F | °C
As of 8:35 AM on Friday 28 Nov 2014 (Local Time) from KBUU Reporting Station
Broken Clouds Broken Clouds  
Wind Chill:   Ceiling: 7000
Heat Index: 17°   Visibility: 10mi
Dew Point: 13°   Wind: 9mph
Humidity: 84%   Direction: 160°SSE
Pressure: 30.2"   Gusts: 16mph
Location:  42.59°N, 88.44°W
Report Text: KBUU 281435Z AUTO 16008G14KT 10SM BKN070 BKN080 M08/M10 A3020 RMK AO2 T10811103
Loading
Personal Weather Stations






























Interactive Weather Map New forecast layout! Learn more

10-Day Weather Forecast

Advertisements
Track Severe Weather on mobile